METAR Data
IDs: Format: Raw Decoded Include TAF

Data at: 1659 UTC 04 Aug 2021

K06C 041655Z AUTO 00000KT 10SM SCT050 27/14 A3014 RMK AO2 T02740139